sensor_id;sensor_type;location;lat;lon;timestamp;P1;durP1;ratioP1;P2;durP2;ratioP2
10985;SDS011;5546;48.714;8.738;2024-01-30T00:00:46;12.47;;;7.67;;
10985;SDS011;5546;48.714;8.738;2024-01-30T00:03:11;14.93;;;7.60;;
10985;SDS011;5546;48.714;8.738;2024-01-30T00:05:37;9.20;;;7.53;;
10985;SDS011;5546;48.714;8.738;2024-01-30T00:08:02;11.10;;;7.70;;
10985;SDS011;5546;48.714;8.738;2024-01-30T00:10:28;12.87;;;7.90;;
10985;SDS011;5546;48.714;8.738;2024-01-30T00:12:54;11.70;;;8.53;;
10985;SDS011;5546;48.714;8.738;2024-01-30T00:15:19;9.93;;;7.40;;
10985;SDS011;5546;48.714;8.738;2024-01-30T00:17:45;9.83;;;7.40;;
10985;SDS011;5546;48.714;8.738;2024-01-30T00:20:11;9.67;;;7.57;;
10985;SDS011;5546;48.714;8.738;2024-01-30T00:22:37;12.90;;;8.13;;
10985;SDS011;5546;48.714;8.738;2024-01-30T00:25:02;10.93;;;7.50;;
10985;SDS011;5546;48.714;8.738;2024-01-30T00:27:28;10.73;;;8.50;;
10985;SDS011;5546;48.714;8.738;2024-01-30T00:29:54;10.70;;;8.20;;
10985;SDS011;5546;48.714;8.738;2024-01-30T00:32:19;11.63;;;8.00;;
10985;SDS011;5546;48.714;8.738;2024-01-30T00:34:45;10.53;;;6.70;;
10985;SDS011;5546;48.714;8.738;2024-01-30T00:37:10;10.13;;;7.73;;
10985;SDS011;5546;48.714;8.738;2024-01-30T00:39:36;10.13;;;7.40;;
10985;SDS011;5546;48.714;8.738;2024-01-30T00:42:02;11.40;;;7.10;;
10985;SDS011;5546;48.714;8.738;2024-01-30T00:44:27;10.57;;;7.60;;
10985;SDS011;5546;48.714;8.738;2024-01-30T00:46:53;13.63;;;8.20;;
10985;SDS011;5546;48.714;8.738;2024-01-30T00:49:18;11.47;;;7.83;;
10985;SDS011;5546;48.714;8.738;2024-01-30T00:51:44;9.87;;;7.17;;
10985;SDS011;5546;48.714;8.738;2024-01-30T00:54:10;13.33;;;8.73;;
10985;SDS011;5546;48.714;8.738;2024-01-30T00:56:36;10.57;;;7.93;;
10985;SDS011;5546;48.714;8.738;2024-01-30T00:59:02;11.87;;;7.53;;
10985;SDS011;5546;48.714;8.738;2024-01-30T01:01:27;14.17;;;9.03;;
10985;SDS011;5546;48.714;8.738;2024-01-30T01:03:53;13.40;;;9.27;;
10985;SDS011;5546;48.714;8.738;2024-01-30T01:06:18;14.30;;;9.47;;
10985;SDS011;5546;48.714;8.738;2024-01-30T01:08:44;14.30;;;9.27;;
10985;SDS011;5546;48.714;8.738;2024-01-30T01:11:09;16.67;;;9.20;;
10985;SDS011;5546;48.714;8.738;2024-01-30T01:13:35;12.83;;;8.37;;
10985;SDS011;5546;48.714;8.738;2024-01-30T01:16:00;15.40;;;8.90;;
10985;SDS011;5546;48.714;8.738;2024-01-30T01:18:26;11.67;;;7.60;;
10985;SDS011;5546;48.714;8.738;2024-01-30T01:20:52;11.10;;;7.50;;
10985;SDS011;5546;48.714;8.738;2024-01-30T01:23:17;9.17;;;6.07;;
10985;SDS011;5546;48.714;8.738;2024-01-30T01:25:43;12.10;;;7.20;;
10985;SDS011;5546;48.714;8.738;2024-01-30T01:28:09;13.43;;;7.73;;
10985;SDS011;5546;48.714;8.738;2024-01-30T01:30:35;13.43;;;8.17;;
10985;SDS011;5546;48.714;8.738;2024-01-30T01:33:00;9.27;;;6.90;;
10985;SDS011;5546;48.714;8.738;2024-01-30T01:35:27;10.93;;;7.90;;
10985;SDS011;5546;48.714;8.738;2024-01-30T01:37:53;11.17;;;8.40;;
10985;SDS011;5546;48.714;8.738;2024-01-30T01:40:23;13.33;;;8.50;;
10985;SDS011;5546;48.714;8.738;2024-01-30T01:42:49;12.97;;;7.73;;
10985;SDS011;5546;48.714;8.738;2024-01-30T01:45:17;12.23;;;8.43;;
10985;SDS011;5546;48.714;8.738;2024-01-30T01:47:42;11.23;;;6.97;;
10985;SDS011;5546;48.714;8.738;2024-01-30T01:50:11;8.43;;;6.23;;
10985;SDS011;5546;48.714;8.738;2024-01-30T01:52:38;11.67;;;7.70;;
10985;SDS011;5546;48.714;8.738;2024-01-30T01:55:05;15.27;;;8.30;;
10985;SDS011;5546;48.714;8.738;2024-01-30T01:57:33;15.33;;;8.80;;
10985;SDS011;5546;48.714;8.738;2024-01-30T01:59:59;12.33;;;7.87;;
10985;SDS011;5546;48.714;8.738;2024-01-30T02:02:26;10.63;;;6.87;;
10985;SDS011;5546;48.714;8.738;2024-01-30T02:04:56;11.70;;;6.60;;
10985;SDS011;5546;48.714;8.738;2024-01-30T02:07:22;8.90;;;6.73;;
10985;SDS011;5546;48.714;8.738;2024-01-30T02:09:49;10.10;;;6.73;;
10985;SDS011;5546;48.714;8.738;2024-01-30T02:12:14;13.00;;;6.83;;
10985;SDS011;5546;48.714;8.738;2024-01-30T02:14:46;7.37;;;5.40;;
10985;SDS011;5546;48.714;8.738;2024-01-30T02:17:13;10.57;;;5.87;;
10985;SDS011;5546;48.714;8.738;2024-01-30T02:19:39;10.30;;;7.13;;
10985;SDS011;5546;48.714;8.738;2024-01-30T02:22:05;10.83;;;6.87;;
10985;SDS011;5546;48.714;8.738;2024-01-30T02:24:31;8.33;;;6.67;;
10985;SDS011;5546;48.714;8.738;2024-01-30T02:26:56;11.47;;;6.93;;
10985;SDS011;5546;48.714;8.738;2024-01-30T02:29:22;10.37;;;6.07;;
10985;SDS011;5546;48.714;8.738;2024-01-30T02:31:47;11.50;;;6.60;;
10985;SDS011;5546;48.714;8.738;2024-01-30T02:34:13;14.37;;;8.53;;
10985;SDS011;5546;48.714;8.738;2024-01-30T02:36:42;11.43;;;9.03;;
10985;SDS011;5546;48.714;8.738;2024-01-30T02:39:07;12.13;;;8.47;;
10985;SDS011;5546;48.714;8.738;2024-01-30T02:41:33;11.03;;;7.73;;
10985;SDS011;5546;48.714;8.738;2024-01-30T02:43:59;11.87;;;6.90;;
10985;SDS011;5546;48.714;8.738;2024-01-30T02:46:24;9.67;;;6.90;;
10985;SDS011;5546;48.714;8.738;2024-01-30T02:48:50;10.20;;;7.20;;
10985;SDS011;5546;48.714;8.738;2024-01-30T02:51:16;11.27;;;6.63;;
10985;SDS011;5546;48.714;8.738;2024-01-30T02:53:41;9.53;;;6.40;;
10985;SDS011;5546;48.714;8.738;2024-01-30T02:56:07;10.23;;;7.80;;
10985;SDS011;5546;48.714;8.738;2024-01-30T02:58:35;9.80;;;7.27;;
10985;SDS011;5546;48.714;8.738;2024-01-30T03:01:01;9.77;;;6.40;;
10985;SDS011;5546;48.714;8.738;2024-01-30T03:03:27;10.53;;;7.20;;
10985;SDS011;5546;48.714;8.738;2024-01-30T03:05:53;9.77;;;6.63;;
10985;SDS011;5546;48.714;8.738;2024-01-30T03:08:18;10.03;;;6.67;;
10985;SDS011;5546;48.714;8.738;2024-01-30T03:10:44;10.67;;;7.40;;
10985;SDS011;5546;48.714;8.738;2024-01-30T03:13:09;11.57;;;7.97;;
10985;SDS011;5546;48.714;8.738;2024-01-30T03:15:35;12.83;;;8.60;;
10985;SDS011;5546;48.714;8.738;2024-01-30T03:18:01;9.50;;;6.77;;
10985;SDS011;5546;48.714;8.738;2024-01-30T03:20:28;7.60;;;5.90;;
10985;SDS011;5546;48.714;8.738;2024-01-30T03:22:54;11.10;;;6.90;;
10985;SDS011;5546;48.714;8.738;2024-01-30T03:25:21;8.80;;;6.30;;
10985;SDS011;5546;48.714;8.738;2024-01-30T03:27:46;10.97;;;5.97;;
10985;SDS011;5546;48.714;8.738;2024-01-30T03:30:12;11.23;;;6.30;;
10985;SDS011;5546;48.714;8.738;2024-01-30T03:32:38;15.27;;;8.47;;
10985;SDS011;5546;48.714;8.738;2024-01-30T03:35:03;12.50;;;8.37;;
10985;SDS011;5546;48.714;8.738;2024-01-30T03:37:29;12.27;;;7.33;;
10985;SDS011;5546;48.714;8.738;2024-01-30T03:39:58;7.80;;;6.60;;
10985;SDS011;5546;48.714;8.738;2024-01-30T03:42:23;9.30;;;6.93;;
10985;SDS011;5546;48.714;8.738;2024-01-30T03:44:49;8.60;;;6.27;;
10985;SDS011;5546;48.714;8.738;2024-01-30T03:47:18;8.97;;;5.80;;
10985;SDS011;5546;48.714;8.738;2024-01-30T03:49:44;7.27;;;5.33;;
10985;SDS011;5546;48.714;8.738;2024-01-30T03:52:10;7.33;;;5.53;;
10985;SDS011;5546;48.714;8.738;2024-01-30T03:54:35;8.90;;;5.73;;
10985;SDS011;5546;48.714;8.738;2024-01-30T03:57:01;9.37;;;6.20;;
10985;SDS011;5546;48.714;8.738;2024-01-30T03:59:27;11.13;;;7.33;;
10985;SDS011;5546;48.714;8.738;2024-01-30T04:01:52;10.30;;;7.53;;
10985;SDS011;5546;48.714;8.738;2024-01-30T04:04:18;9.40;;;6.93;;
10985;SDS011;5546;48.714;8.738;2024-01-30T04:06:44;11.53;;;6.43;;
10985;SDS011;5546;48.714;8.738;2024-01-30T04:09:10;12.97;;;6.50;;
10985;SDS011;5546;48.714;8.738;2024-01-30T04:11:38;8.83;;;6.00;;
10985;SDS011;5546;48.714;8.738;2024-01-30T04:14:07;10.33;;;6.43;;
10985;SDS011;5546;48.714;8.738;2024-01-30T04:16:33;9.23;;;5.40;;
10985;SDS011;5546;48.714;8.738;2024-01-30T04:18:58;8.40;;;5.80;;
10985;SDS011;5546;48.714;8.738;2024-01-30T04:21:24;8.80;;;5.70;;
10985;SDS011;5546;48.714;8.738;2024-01-30T04:23:50;9.70;;;6.50;;
10985;SDS011;5546;48.714;8.738;2024-01-30T04:26:16;10.33;;;6.20;;
10985;SDS011;5546;48.714;8.738;2024-01-30T04:28:43;7.97;;;6.50;;
10985;SDS011;5546;48.714;8.738;2024-01-30T04:31:10;9.37;;;6.10;;
10985;SDS011;5546;48.714;8.738;2024-01-30T04:33:35;12.70;;;6.20;;
10985;SDS011;5546;48.714;8.738;2024-01-30T04:36:01;10.67;;;7.63;;
10985;SDS011;5546;48.714;8.738;2024-01-30T04:38:27;12.63;;;8.53;;
10985;SDS011;5546;48.714;8.738;2024-01-30T04:40:53;12.40;;;8.70;;
10985;SDS011;5546;48.714;8.738;2024-01-30T04:43:19;11.87;;;8.67;;
10985;SDS011;5546;48.714;8.738;2024-01-30T04:45:44;8.90;;;6.43;;
10985;SDS011;5546;48.714;8.738;2024-01-30T04:48:10;8.33;;;6.20;;
10985;SDS011;5546;48.714;8.738;2024-01-30T04:50:35;9.03;;;6.50;;
10985;SDS011;5546;48.714;8.738;2024-01-30T04:53:01;8.90;;;6.23;;
10985;SDS011;5546;48.714;8.738;2024-01-30T04:55:27;10.30;;;6.67;;
10985;SDS011;5546;48.714;8.738;2024-01-30T04:57:52;12.77;;;6.90;;
10985;SDS011;5546;48.714;8.738;2024-01-30T05:00:18;16.87;;;8.43;;
10985;SDS011;5546;48.714;8.738;2024-01-30T05:02:44;21.57;;;9.00;;
10985;SDS011;5546;48.714;8.738;2024-01-30T05:05:09;25.30;;;9.50;;
10985;SDS011;5546;48.714;8.738;2024-01-30T05:07:36;14.87;;;8.67;;
10985;SDS011;5546;48.714;8.738;2024-01-30T05:10:01;13.00;;;9.07;;
10985;SDS011;5546;48.714;8.738;2024-01-30T05:12:28;19.00;;;9.93;;
10985;SDS011;5546;48.714;8.738;2024-01-30T05:14:53;24.20;;;10.33;;
10985;SDS011;5546;48.714;8.738;2024-01-30T05:17:19;20.63;;;9.53;;
10985;SDS011;5546;48.714;8.738;2024-01-30T05:19:44;19.00;;;8.67;;
10985;SDS011;5546;48.714;8.738;2024-01-30T05:22:10;18.20;;;8.00;;
10985;SDS011;5546;48.714;8.738;2024-01-30T05:24:36;14.13;;;8.80;;
10985;SDS011;5546;48.714;8.738;2024-01-30T05:27:01;14.27;;;8.60;;
10985;SDS011;5546;48.714;8.738;2024-01-30T05:29:27;10.93;;;7.53;;
10985;SDS011;5546;48.714;8.738;2024-01-30T05:31:53;10.87;;;6.77;;
10985;SDS011;5546;48.714;8.738;2024-01-30T05:34:18;10.83;;;6.83;;
10985;SDS011;5546;48.714;8.738;2024-01-30T05:36:44;11.57;;;7.30;;
10985;SDS011;5546;48.714;8.738;2024-01-30T05:39:09;10.67;;;7.60;;
10985;SDS011;5546;48.714;8.738;2024-01-30T05:41:35;11.80;;;7.80;;
10985;SDS011;5546;48.714;8.738;2024-01-30T05:44:01;11.47;;;7.47;;
10985;SDS011;5546;48.714;8.738;2024-01-30T05:46:26;9.93;;;6.10;;
10985;SDS011;5546;48.714;8.738;2024-01-30T05:48:52;11.30;;;6.90;;
10985;SDS011;5546;48.714;8.738;2024-01-30T05:51:18;13.27;;;8.90;;
10985;SDS011;5546;48.714;8.738;2024-01-30T05:53:43;12.77;;;8.27;;
10985;SDS011;5546;48.714;8.738;2024-01-30T05:56:09;10.53;;;8.30;;
10985;SDS011;5546;48.714;8.738;2024-01-30T05:58:34;11.20;;;8.30;;
10985;SDS011;5546;48.714;8.738;2024-01-30T06:01:00;8.80;;;7.33;;
10985;SDS011;5546;48.714;8.738;2024-01-30T06:03:25;10.10;;;7.37;;
10985;SDS011;5546;48.714;8.738;2024-01-30T06:05:51;9.33;;;6.43;;
10985;SDS011;5546;48.714;8.738;2024-01-30T06:08:17;10.20;;;5.77;;
10985;SDS011;5546;48.714;8.738;2024-01-30T06:10:43;7.27;;;6.00;;
10985;SDS011;5546;48.714;8.738;2024-01-30T06:13:08;8.97;;;6.30;;
10985;SDS011;5546;48.714;8.738;2024-01-30T06:15:34;7.80;;;5.43;;
10985;SDS011;5546;48.714;8.738;2024-01-30T06:17:59;7.33;;;5.27;;
10985;SDS011;5546;48.714;8.738;2024-01-30T06:20:25;6.40;;;5.10;;
10985;SDS011;5546;48.714;8.738;2024-01-30T06:22:51;10.47;;;6.27;;
10985;SDS011;5546;48.714;8.738;2024-01-30T06:25:16;14.67;;;8.23;;
10985;SDS011;5546;48.714;8.738;2024-01-30T06:27:42;8.07;;;6.30;;
10985;SDS011;5546;48.714;8.738;2024-01-30T06:30:08;7.20;;;5.13;;
10985;SDS011;5546;48.714;8.738;2024-01-30T06:32:35;12.83;;;8.60;;
10985;SDS011;5546;48.714;8.738;2024-01-30T06:35:01;8.60;;;6.20;;
10985;SDS011;5546;48.714;8.738;2024-01-30T06:37:27;11.47;;;6.13;;
10985;SDS011;5546;48.714;8.738;2024-01-30T06:39:53;10.17;;;6.00;;
10985;SDS011;5546;48.714;8.738;2024-01-30T06:42:18;9.27;;;5.60;;
10985;SDS011;5546;48.714;8.738;2024-01-30T06:44:44;9.17;;;6.33;;
10985;SDS011;5546;48.714;8.738;2024-01-30T06:47:10;9.80;;;6.73;;
10985;SDS011;5546;48.714;8.738;2024-01-30T06:49:36;12.90;;;6.73;;
10985;SDS011;5546;48.714;8.738;2024-01-30T06:52:04;11.57;;;7.03;;
10985;SDS011;5546;48.714;8.738;2024-01-30T06:54:30;9.83;;;6.47;;
10985;SDS011;5546;48.714;8.738;2024-01-30T06:56:58;8.47;;;6.27;;
10985;SDS011;5546;48.714;8.738;2024-01-30T06:59:24;10.13;;;5.83;;
10985;SDS011;5546;48.714;8.738;2024-01-30T07:01:50;8.50;;;6.13;;
10985;SDS011;5546;48.714;8.738;2024-01-30T07:04:15;10.17;;;6.50;;
10985;SDS011;5546;48.714;8.738;2024-01-30T07:06:41;10.17;;;6.83;;
10985;SDS011;5546;48.714;8.738;2024-01-30T07:09:07;8.83;;;6.47;;
10985;SDS011;5546;48.714;8.738;2024-01-30T07:11:33;19.27;;;14.97;;
10985;SDS011;5546;48.714;8.738;2024-01-30T07:13:59;13.87;;;9.57;;
10985;SDS011;5546;48.714;8.738;2024-01-30T07:16:24;12.37;;;8.20;;
10985;SDS011;5546;48.714;8.738;2024-01-30T07:18:50;13.40;;;8.23;;
10985;SDS011;5546;48.714;8.738;2024-01-30T07:21:15;11.37;;;7.83;;
10985;SDS011;5546;48.714;8.738;2024-01-30T07:23:41;10.70;;;7.50;;
10985;SDS011;5546;48.714;8.738;2024-01-30T07:26:07;10.10;;;7.03;;
10985;SDS011;5546;48.714;8.738;2024-01-30T07:28:34;11.10;;;7.43;;
10985;SDS011;5546;48.714;8.738;2024-01-30T07:31:03;13.33;;;7.40;;
10985;SDS011;5546;48.714;8.738;2024-01-30T07:33:28;14.90;;;7.60;;
10985;SDS011;5546;48.714;8.738;2024-01-30T07:35:54;8.63;;;6.80;;
10985;SDS011;5546;48.714;8.738;2024-01-30T07:38:20;12.40;;;7.77;;
10985;SDS011;5546;48.714;8.738;2024-01-30T07:40:45;12.23;;;7.57;;
10985;SDS011;5546;48.714;8.738;2024-01-30T07:43:11;10.17;;;7.03;;
10985;SDS011;5546;48.714;8.738;2024-01-30T07:45:37;9.37;;;7.00;;
10985;SDS011;5546;48.714;8.738;2024-01-30T07:48:03;12.17;;;7.27;;
10985;SDS011;5546;48.714;8.738;2024-01-30T07:50:32;12.13;;;8.13;;
10985;SDS011;5546;48.714;8.738;2024-01-30T07:52:59;11.57;;;7.53;;
10985;SDS011;5546;48.714;8.738;2024-01-30T07:55:25;12.03;;;8.23;;
10985;SDS011;5546;48.714;8.738;2024-01-30T07:57:53;13.80;;;8.57;;
10985;SDS011;5546;48.714;8.738;2024-01-30T08:00:23;9.57;;;8.10;;
10985;SDS011;5546;48.714;8.738;2024-01-30T08:02:48;11.50;;;8.80;;
10985;SDS011;5546;48.714;8.738;2024-01-30T08:05:14;11.87;;;8.97;;
10985;SDS011;5546;48.714;8.738;2024-01-30T08:07:40;11.77;;;8.37;;
10985;SDS011;5546;48.714;8.738;2024-01-30T08:10:11;9.33;;;7.07;;
10985;SDS011;5546;48.714;8.738;2024-01-30T08:12:37;11.27;;;7.13;;
10985;SDS011;5546;48.714;8.738;2024-01-30T08:15:02;16.30;;;7.63;;
10985;SDS011;5546;48.714;8.738;2024-01-30T08:17:29;12.37;;;7.83;;
10985;SDS011;5546;48.714;8.738;2024-01-30T08:19:55;11.03;;;7.50;;
10985;SDS011;5546;48.714;8.738;2024-01-30T08:22:20;10.77;;;8.10;;
10985;SDS011;5546;48.714;8.738;2024-01-30T08:24:46;10.73;;;8.50;;
10985;SDS011;5546;48.714;8.738;2024-01-30T08:27:12;16.17;;;8.33;;
10985;SDS011;5546;48.714;8.738;2024-01-30T08:29:37;12.67;;;7.77;;
10985;SDS011;5546;48.714;8.738;2024-01-30T08:32:06;11.50;;;7.33;;
10985;SDS011;5546;48.714;8.738;2024-01-30T08:34:32;12.27;;;7.50;;
10985;SDS011;5546;48.714;8.738;2024-01-30T08:36:58;13.20;;;8.17;;
10985;SDS011;5546;48.714;8.738;2024-01-30T08:39:23;12.80;;;9.07;;
10985;SDS011;5546;48.714;8.738;2024-01-30T08:41:49;15.10;;;8.73;;
10985;SDS011;5546;48.714;8.738;2024-01-30T08:44:15;9.37;;;7.70;;
10985;SDS011;5546;48.714;8.738;2024-01-30T08:46:42;8.60;;;6.77;;
10985;SDS011;5546;48.714;8.738;2024-01-30T08:49:07;9.87;;;6.50;;
10985;SDS011;5546;48.714;8.738;2024-01-30T08:51:33;12.40;;;7.30;;
10985;SDS011;5546;48.714;8.738;2024-01-30T08:53:59;13.30;;;7.00;;
10985;SDS011;5546;48.714;8.738;2024-01-30T08:56:25;10.37;;;6.93;;
10985;SDS011;5546;48.714;8.738;2024-01-30T08:58:50;10.23;;;7.00;;
10985;SDS011;5546;48.714;8.738;2024-01-30T09:01:16;12.00;;;7.27;;
10985;SDS011;5546;48.714;8.738;2024-01-30T09:03:41;10.77;;;6.97;;
10985;SDS011;5546;48.714;8.738;2024-01-30T09:06:10;9.17;;;6.63;;
10985;SDS011;5546;48.714;8.738;2024-01-30T09:08:36;8.10;;;6.53;;
10985;SDS011;5546;48.714;8.738;2024-01-30T09:11:08;10.23;;;6.83;;
10985;SDS011;5546;48.714;8.738;2024-01-30T09:13:34;7.27;;;6.27;;
10985;SDS011;5546;48.714;8.738;2024-01-30T09:16:00;9.50;;;6.20;;
10985;SDS011;5546;48.714;8.738;2024-01-30T09:18:26;8.23;;;6.60;;
10985;SDS011;5546;48.714;8.738;2024-01-30T09:20:51;13.80;;;6.73;;
10985;SDS011;5546;48.714;8.738;2024-01-30T09:23:17;9.10;;;6.40;;
10985;SDS011;5546;48.714;8.738;2024-01-30T09:25:43;8.47;;;6.60;;
10985;SDS011;5546;48.714;8.738;2024-01-30T09:28:09;10.70;;;6.37;;
10985;SDS011;5546;48.714;8.738;2024-01-30T09:30:34;10.00;;;7.30;;
10985;SDS011;5546;48.714;8.738;2024-01-30T09:33:00;10.03;;;7.43;;
10985;SDS011;5546;48.714;8.738;2024-01-30T09:35:25;10.67;;;7.97;;
10985;SDS011;5546;48.714;8.738;2024-01-30T09:37:51;8.83;;;6.80;;
10985;SDS011;5546;48.714;8.738;2024-01-30T09:40:18;8.87;;;6.50;;
10985;SDS011;5546;48.714;8.738;2024-01-30T09:42:46;9.87;;;5.83;;
10985;SDS011;5546;48.714;8.738;2024-01-30T09:45:14;11.00;;;6.50;;
10985;SDS011;5546;48.714;8.738;2024-01-30T09:47:40;10.20;;;6.77;;
10985;SDS011;5546;48.714;8.738;2024-01-30T09:50:10;7.90;;;5.73;;
10985;SDS011;5546;48.714;8.738;2024-01-30T09:52:36;8.67;;;5.63;;
10985;SDS011;5546;48.714;8.738;2024-01-30T09:55:02;8.27;;;6.10;;
10985;SDS011;5546;48.714;8.738;2024-01-30T09:57:29;9.00;;;5.93;;
10985;SDS011;5546;48.714;8.738;2024-01-30T09:59:54;9.40;;;6.90;;
10985;SDS011;5546;48.714;8.738;2024-01-30T10:02:20;10.60;;;6.23;;
10985;SDS011;5546;48.714;8.738;2024-01-30T10:04:47;7.80;;;6.17;;
10985;SDS011;5546;48.714;8.738;2024-01-30T10:07:14;7.63;;;5.87;;
10985;SDS011;5546;48.714;8.738;2024-01-30T10:09:40;8.47;;;6.30;;
10985;SDS011;5546;48.714;8.738;2024-01-30T10:12:06;8.27;;;6.37;;
10985;SDS011;5546;48.714;8.738;2024-01-30T10:14:33;8.87;;;5.93;;
10985;SDS011;5546;48.714;8.738;2024-01-30T10:16:59;7.10;;;5.47;;
10985;SDS011;5546;48.714;8.738;2024-01-30T10:19:25;6.73;;;5.50;;
10985;SDS011;5546;48.714;8.738;2024-01-30T10:21:51;6.60;;;5.70;;
10985;SDS011;5546;48.714;8.738;2024-01-30T10:24:18;9.93;;;6.33;;
10985;SDS011;5546;48.714;8.738;2024-01-30T10:26:43;11.00;;;6.43;;
10985;SDS011;5546;48.714;8.738;2024-01-30T10:29:09;13.17;;;6.90;;
10985;SDS011;5546;48.714;8.738;2024-01-30T10:31:34;9.27;;;7.23;;
10985;SDS011;5546;48.714;8.738;2024-01-30T10:34:00;8.43;;;7.03;;
10985;SDS011;5546;48.714;8.738;2024-01-30T10:36:28;7.97;;;6.77;;
10985;SDS011;5546;48.714;8.738;2024-01-30T10:38:59;10.57;;;6.80;;
10985;SDS011;5546;48.714;8.738;2024-01-30T10:41:27;7.40;;;5.90;;
10985;SDS011;5546;48.714;8.738;2024-01-30T10:44:02;7.77;;;5.70;;
10985;SDS011;5546;48.714;8.738;2024-01-30T10:46:33;7.00;;;5.60;;
10985;SDS011;5546;48.714;8.738;2024-01-30T10:49:02;10.60;;;5.80;;
10985;SDS011;5546;48.714;8.738;2024-01-30T10:51:30;12.20;;;6.13;;
10985;SDS011;5546;48.714;8.738;2024-01-30T10:53:57;8.97;;;6.40;;
10985;SDS011;5546;48.714;8.738;2024-01-30T10:56:23;8.33;;;6.37;;
10985;SDS011;5546;48.714;8.738;2024-01-30T10:58:52;10.13;;;6.97;;
10985;SDS011;5546;48.714;8.738;2024-01-30T11:01:22;9.73;;;7.10;;
10985;SDS011;5546;48.714;8.738;2024-01-30T11:03:49;14.40;;;7.27;;
10985;SDS011;5546;48.714;8.738;2024-01-30T11:06:19;9.80;;;7.00;;
10985;SDS011;5546;48.714;8.738;2024-01-30T11:09:00;8.03;;;6.57;;
10985;SDS011;5546;48.714;8.738;2024-01-30T11:11:28;14.53;;;10.93;;
10985;SDS011;5546;48.714;8.738;2024-01-30T11:13:54;12.27;;;7.50;;
10985;SDS011;5546;48.714;8.738;2024-01-30T11:16:20;10.17;;;7.50;;
10985;SDS011;5546;48.714;8.738;2024-01-30T11:18:49;8.50;;;6.90;;
10985;SDS011;5546;48.714;8.738;2024-01-30T11:21:16;10.07;;;6.50;;
10985;SDS011;5546;48.714;8.738;2024-01-30T11:23:41;8.80;;;6.77;;
10985;SDS011;5546;48.714;8.738;2024-01-30T11:26:10;7.50;;;5.87;;
10985;SDS011;5546;48.714;8.738;2024-01-30T11:28:36;10.57;;;6.37;;
10985;SDS011;5546;48.714;8.738;2024-01-30T11:31:03;7.80;;;6.80;;
10985;SDS011;5546;48.714;8.738;2024-01-30T11:33:32;10.10;;;6.13;;
10985;SDS011;5546;48.714;8.738;2024-01-30T11:35:59;6.53;;;5.50;;
10985;SDS011;5546;48.714;8.738;2024-01-30T11:38:25;7.10;;;5.70;;
10985;SDS011;5546;48.714;8.738;2024-01-30T11:40:55;6.20;;;5.60;;
10985;SDS011;5546;48.714;8.738;2024-01-30T11:43:24;9.10;;;5.50;;
10985;SDS011;5546;48.714;8.738;2024-01-30T11:45:50;6.07;;;5.40;;
10985;SDS011;5546;48.714;8.738;2024-01-30T11:48:16;8.27;;;5.93;;
10985;SDS011;5546;48.714;8.738;2024-01-30T11:50:42;7.30;;;5.63;;
10985;SDS011;5546;48.714;8.738;2024-01-30T11:53:09;8.27;;;5.97;;
10985;SDS011;5546;48.714;8.738;2024-01-30T11:55:35;9.33;;;5.93;;
10985;SDS011;5546;48.714;8.738;2024-01-30T11:58:02;8.20;;;5.73;;
10985;SDS011;5546;48.714;8.738;2024-01-30T12:00:29;6.83;;;5.57;;
10985;SDS011;5546;48.714;8.738;2024-01-30T12:02:56;9.73;;;6.00;;
10985;SDS011;5546;48.714;8.738;2024-01-30T12:05:22;6.40;;;5.63;;
10985;SDS011;5546;48.714;8.738;2024-01-30T12:07:48;7.60;;;6.23;;
10985;SDS011;5546;48.714;8.738;2024-01-30T12:10:13;6.07;;;5.47;;
10985;SDS011;5546;48.714;8.738;2024-01-30T12:12:39;7.67;;;6.07;;
10985;SDS011;5546;48.714;8.738;2024-01-30T12:15:07;7.10;;;6.17;;
10985;SDS011;5546;48.714;8.738;2024-01-30T12:17:33;7.37;;;6.10;;
10985;SDS011;5546;48.714;8.738;2024-01-30T12:20:06;6.30;;;5.10;;
10985;SDS011;5546;48.714;8.738;2024-01-30T12:22:33;7.07;;;5.80;;
10985;SDS011;5546;48.714;8.738;2024-01-30T12:25:12;7.37;;;5.37;;
10985;SDS011;5546;48.714;8.738;2024-01-30T12:27:39;6.07;;;5.03;;
10985;SDS011;5546;48.714;8.738;2024-01-30T12:30:07;7.63;;;4.70;;
10985;SDS011;5546;48.714;8.738;2024-01-30T12:32:39;7.13;;;5.00;;
10985;SDS011;5546;48.714;8.738;2024-01-30T12:35:09;5.67;;;4.67;;
10985;SDS011;5546;48.714;8.738;2024-01-30T12:37:36;5.60;;;5.00;;
10985;SDS011;5546;48.714;8.738;2024-01-30T12:40:02;5.70;;;4.80;;
10985;SDS011;5546;48.714;8.738;2024-01-30T12:42:29;6.93;;;4.73;;
10985;SDS011;5546;48.714;8.738;2024-01-30T12:44:56;6.77;;;5.57;;
10985;SDS011;5546;48.714;8.738;2024-01-30T12:47:22;7.33;;;5.70;;
10985;SDS011;5546;48.714;8.738;2024-01-30T12:49:48;9.07;;;6.10;;
10985;SDS011;5546;48.714;8.738;2024-01-30T12:52:18;9.57;;;5.63;;
10985;SDS011;5546;48.714;8.738;2024-01-30T12:54:44;7.73;;;4.87;;
10985;SDS011;5546;48.714;8.738;2024-01-30T12:57:10;7.03;;;5.30;;
10985;SDS011;5546;48.714;8.738;2024-01-30T12:59:36;6.07;;;5.10;;
10985;SDS011;5546;48.714;8.738;2024-01-30T13:02:02;7.53;;;5.53;;
10985;SDS011;5546;48.714;8.738;2024-01-30T13:04:28;7.53;;;5.20;;
10985;SDS011;5546;48.714;8.738;2024-01-30T13:06:54;7.80;;;5.10;;
10985;SDS011;5546;48.714;8.738;2024-01-30T13:09:20;8.17;;;5.47;;
10985;SDS011;5546;48.714;8.738;2024-01-30T13:11:46;5.90;;;4.90;;
10985;SDS011;5546;48.714;8.738;2024-01-30T13:14:12;7.37;;;5.00;;
10985;SDS011;5546;48.714;8.738;2024-01-30T13:16:38;7.53;;;4.97;;
10985;SDS011;5546;48.714;8.738;2024-01-30T13:19:03;8.30;;;4.80;;
10985;SDS011;5546;48.714;8.738;2024-01-30T13:21:29;8.20;;;4.73;;
10985;SDS011;5546;48.714;8.738;2024-01-30T13:23:57;6.50;;;4.63;;
10985;SDS011;5546;48.714;8.738;2024-01-30T13:26:23;8.43;;;4.47;;
10985;SDS011;5546;48.714;8.738;2024-01-30T13:28:48;6.70;;;4.90;;
10985;SDS011;5546;48.714;8.738;2024-01-30T13:31:14;7.40;;;5.43;;
10985;SDS011;5546;48.714;8.738;2024-01-30T13:33:40;9.87;;;6.57;;
10985;SDS011;5546;48.714;8.738;2024-01-30T13:36:07;13.37;;;7.30;;
10985;SDS011;5546;48.714;8.738;2024-01-30T13:38:33;7.87;;;6.03;;
10985;SDS011;5546;48.714;8.738;2024-01-30T13:40:59;6.83;;;5.67;;
10985;SDS011;5546;48.714;8.738;2024-01-30T13:43:25;7.17;;;5.50;;
10985;SDS011;5546;48.714;8.738;2024-01-30T13:45:51;6.27;;;4.97;;
10985;SDS011;5546;48.714;8.738;2024-01-30T13:48:17;5.97;;;5.10;;
10985;SDS011;5546;48.714;8.738;2024-01-30T13:50:42;8.70;;;5.53;;
10985;SDS011;5546;48.714;8.738;2024-01-30T13:53:08;6.10;;;5.10;;
10985;SDS011;5546;48.714;8.738;2024-01-30T13:55:33;9.53;;;5.03;;
10985;SDS011;5546;48.714;8.738;2024-01-30T13:57:59;6.47;;;5.43;;
10985;SDS011;5546;48.714;8.738;2024-01-30T14:00:26;8.57;;;5.00;;
10985;SDS011;5546;48.714;8.738;2024-01-30T14:02:52;9.60;;;6.73;;
10985;SDS011;5546;48.714;8.738;2024-01-30T14:05:20;6.73;;;5.50;;
10985;SDS011;5546;48.714;8.738;2024-01-30T14:07:46;7.70;;;5.60;;
10985;SDS011;5546;48.714;8.738;2024-01-30T14:10:12;7.57;;;5.33;;
10985;SDS011;5546;48.714;8.738;2024-01-30T14:12:38;8.50;;;4.60;;
10985;SDS011;5546;48.714;8.738;2024-01-30T14:15:03;5.80;;;4.47;;
10985;SDS011;5546;48.714;8.738;2024-01-30T14:17:29;5.63;;;4.63;;
10985;SDS011;5546;48.714;8.738;2024-01-30T14:19:55;5.13;;;4.10;;
10985;SDS011;5546;48.714;8.738;2024-01-30T14:22:21;9.20;;;4.80;;
10985;SDS011;5546;48.714;8.738;2024-01-30T14:24:47;6.43;;;5.00;;
10985;SDS011;5546;48.714;8.738;2024-01-30T14:27:12;6.27;;;5.27;;
10985;SDS011;5546;48.714;8.738;2024-01-30T14:29:38;7.63;;;5.17;;
10985;SDS011;5546;48.714;8.738;2024-01-30T14:32:03;10.50;;;5.23;;
10985;SDS011;5546;48.714;8.738;2024-01-30T14:34:29;7.47;;;5.17;;
10985;SDS011;5546;48.714;8.738;2024-01-30T14:36:55;6.27;;;4.93;;
10985;SDS011;5546;48.714;8.738;2024-01-30T14:39:21;7.03;;;5.10;;
10985;SDS011;5546;48.714;8.738;2024-01-30T14:41:47;8.60;;;5.53;;
10985;SDS011;5546;48.714;8.738;2024-01-30T14:44:12;9.67;;;5.40;;
10985;SDS011;5546;48.714;8.738;2024-01-30T14:46:38;9.43;;;4.97;;
10985;SDS011;5546;48.714;8.738;2024-01-30T14:49:04;6.27;;;4.73;;